sensor_id;sensor_type;location;lat;lon;timestamp;P1;durP1;ratioP1;P2;durP2;ratioP2
36817;SDS011;22761;51.542;16.450;2023-06-19T00:01:27;9.20;;;8.30;;
36817;SDS011;22761;51.542;16.450;2023-06-19T00:03:56;9.60;;;8.30;;
36817;SDS011;22761;51.542;16.450;2023-06-19T00:06:24;9.90;;;8.50;;
36817;SDS011;22761;51.542;16.450;2023-06-19T00:08:53;9.20;;;8.40;;
36817;SDS011;22761;51.542;16.450;2023-06-19T00:11:21;11.00;;;9.00;;
36817;SDS011;22761;51.542;16.450;2023-06-19T00:13:50;11.10;;;8.50;;
36817;SDS011;22761;51.542;16.450;2023-06-19T00:16:18;8.50;;;7.60;;
36817;SDS011;22761;51.542;16.450;2023-06-19T00:18:47;8.80;;;7.60;;
36817;SDS011;22761;51.542;16.450;2023-06-19T00:21:16;9.30;;;8.30;;
36817;SDS011;22761;51.542;16.450;2023-06-19T00:23:44;9.40;;;8.40;;
36817;SDS011;22761;51.542;16.450;2023-06-19T00:26:13;10.40;;;8.70;;
36817;SDS011;22761;51.542;16.450;2023-06-19T00:28:43;10.20;;;8.50;;
36817;SDS011;22761;51.542;16.450;2023-06-19T00:31:13;11.50;;;7.90;;
36817;SDS011;22761;51.542;16.450;2023-06-19T00:33:43;9.30;;;8.40;;
36817;SDS011;22761;51.542;16.450;2023-06-19T00:36:14;9.30;;;8.00;;
36817;SDS011;22761;51.542;16.450;2023-06-19T00:38:45;9.30;;;8.40;;
36817;SDS011;22761;51.542;16.450;2023-06-19T00:43:45;10.10;;;9.10;;
36817;SDS011;22761;51.542;16.450;2023-06-19T00:46:13;10.80;;;9.00;;
36817;SDS011;22761;51.542;16.450;2023-06-19T00:48:42;9.30;;;8.20;;
36817;SDS011;22761;51.542;16.450;2023-06-19T00:51:10;10.00;;;8.50;;
36817;SDS011;22761;51.542;16.450;2023-06-19T00:53:39;9.50;;;8.30;;
36817;SDS011;22761;51.542;16.450;2023-06-19T00:56:07;8.90;;;8.00;;
36817;SDS011;22761;51.542;16.450;2023-06-19T00:58:36;10.20;;;8.90;;
36817;SDS011;22761;51.542;16.450;2023-06-19T01:01:04;10.10;;;8.40;;
36817;SDS011;22761;51.542;16.450;2023-06-19T01:03:37;10.00;;;9.00;;
36817;SDS011;22761;51.542;16.450;2023-06-19T01:06:10;10.40;;;9.30;;
36817;SDS011;22761;51.542;16.450;2023-06-19T01:11:41;13.20;;;8.80;;
36817;SDS011;22761;51.542;16.450;2023-06-19T01:14:14;9.70;;;8.70;;
36817;SDS011;22761;51.542;16.450;2023-06-19T01:16:47;9.80;;;8.80;;
36817;SDS011;22761;51.542;16.450;2023-06-19T01:19:17;9.60;;;8.60;;
36817;SDS011;22761;51.542;16.450;2023-06-19T01:21:48;9.80;;;8.80;;
36817;SDS011;22761;51.542;16.450;2023-06-19T01:24:18;9.60;;;8.50;;
36817;SDS011;22761;51.542;16.450;2023-06-19T01:26:47;11.90;;;8.30;;
36817;SDS011;22761;51.542;16.450;2023-06-19T01:29:15;9.30;;;8.30;;
36817;SDS011;22761;51.542;16.450;2023-06-19T01:31:50;9.40;;;8.50;;
36817;SDS011;22761;51.542;16.450;2023-06-19T01:34:24;10.90;;;9.20;;
36817;SDS011;22761;51.542;16.450;2023-06-19T01:39:25;11.50;;;8.50;;
36817;SDS011;22761;51.542;16.450;2023-06-19T01:41:54;9.00;;;7.60;;
36817;SDS011;22761;51.542;16.450;2023-06-19T01:44:23;10.50;;;8.40;;
36817;SDS011;22761;51.542;16.450;2023-06-19T01:46:52;11.30;;;8.40;;
36817;SDS011;22761;51.542;16.450;2023-06-19T01:49:21;10.60;;;8.80;;
36817;SDS011;22761;51.542;16.450;2023-06-19T01:51:49;10.50;;;7.90;;
36817;SDS011;22761;51.542;16.450;2023-06-19T01:54:18;9.00;;;8.10;;
36817;SDS011;22761;51.542;16.450;2023-06-19T01:56:48;8.90;;;7.50;;
36817;SDS011;22761;51.542;16.450;2023-06-19T01:59:17;19.90;;;9.90;;
36817;SDS011;22761;51.542;16.450;2023-06-19T02:01:49;9.40;;;8.40;;
36817;SDS011;22761;51.542;16.450;2023-06-19T02:04:17;10.40;;;9.30;;
36817;SDS011;22761;51.542;16.450;2023-06-19T02:06:46;9.00;;;8.10;;
36817;SDS011;22761;51.542;16.450;2023-06-19T02:09:15;10.30;;;9.20;;
36817;SDS011;22761;51.542;16.450;2023-06-19T02:11:44;9.10;;;8.20;;
36817;SDS011;22761;51.542;16.450;2023-06-19T02:14:12;11.80;;;9.80;;
36817;SDS011;22761;51.542;16.450;2023-06-19T02:16:41;10.50;;;9.40;;
36817;SDS011;22761;51.542;16.450;2023-06-19T02:19:12;10.70;;;9.00;;
36817;SDS011;22761;51.542;16.450;2023-06-19T02:21:40;9.40;;;8.40;;
36817;SDS011;22761;51.542;16.450;2023-06-19T02:24:09;10.60;;;9.50;;
36817;SDS011;22761;51.542;16.450;2023-06-19T02:26:38;9.40;;;8.40;;
36817;SDS011;22761;51.542;16.450;2023-06-19T02:29:07;9.90;;;8.90;;
36817;SDS011;22761;51.542;16.450;2023-06-19T02:31:36;12.30;;;9.30;;
36817;SDS011;22761;51.542;16.450;2023-06-19T02:34:05;11.80;;;8.70;;
36817;SDS011;22761;51.542;16.450;2023-06-19T02:36:34;11.50;;;9.60;;
36817;SDS011;22761;51.542;16.450;2023-06-19T02:39:04;9.50;;;8.40;;
36817;SDS011;22761;51.542;16.450;2023-06-19T02:41:35;10.60;;;9.50;;
36817;SDS011;22761;51.542;16.450;2023-06-19T02:44:04;10.60;;;9.40;;
36817;SDS011;22761;51.542;16.450;2023-06-19T02:46:32;11.10;;;9.20;;
36817;SDS011;22761;51.542;16.450;2023-06-19T02:49:01;11.10;;;9.40;;
36817;SDS011;22761;51.542;16.450;2023-06-19T02:51:30;11.00;;;9.60;;
36817;SDS011;22761;51.542;16.450;2023-06-19T02:53:59;10.80;;;9.50;;
36817;SDS011;22761;51.542;16.450;2023-06-19T02:56:30;16.50;;;9.80;;
36817;SDS011;22761;51.542;16.450;2023-06-19T02:58:59;11.80;;;9.20;;
36817;SDS011;22761;51.542;16.450;2023-06-19T03:01:29;10.60;;;9.60;;
36817;SDS011;22761;51.542;16.450;2023-06-19T03:03:58;11.30;;;9.20;;
36817;SDS011;22761;51.542;16.450;2023-06-19T03:06:27;9.70;;;8.70;;
36817;SDS011;22761;51.542;16.450;2023-06-19T03:08:56;11.80;;;9.00;;
36817;SDS011;22761;51.542;16.450;2023-06-19T03:11:25;9.50;;;8.20;;
36817;SDS011;22761;51.542;16.450;2023-06-19T03:13:54;9.50;;;8.50;;
36817;SDS011;22761;51.542;16.450;2023-06-19T03:16:22;9.90;;;9.00;;
36817;SDS011;22761;51.542;16.450;2023-06-19T03:18:51;12.80;;;9.70;;
36817;SDS011;22761;51.542;16.450;2023-06-19T03:21:22;10.40;;;9.20;;
36817;SDS011;22761;51.542;16.450;2023-06-19T03:23:51;10.90;;;9.80;;
36817;SDS011;22761;51.542;16.450;2023-06-19T03:26:21;11.40;;;9.50;;
36817;SDS011;22761;51.542;16.450;2023-06-19T03:28:50;11.20;;;9.80;;
36817;SDS011;22761;51.542;16.450;2023-06-19T03:31:18;13.10;;;11.10;;
36817;SDS011;22761;51.542;16.450;2023-06-19T03:33:47;13.00;;;10.20;;
36817;SDS011;22761;51.542;16.450;2023-06-19T03:36:16;11.00;;;9.40;;
36817;SDS011;22761;51.542;16.450;2023-06-19T03:38:49;11.40;;;10.30;;
36817;SDS011;22761;51.542;16.450;2023-06-19T03:41:20;11.80;;;10.60;;
36817;SDS011;22761;51.542;16.450;2023-06-19T03:43:49;14.20;;;11.10;;
36817;SDS011;22761;51.542;16.450;2023-06-19T03:46:18;11.80;;;10.60;;
36817;SDS011;22761;51.542;16.450;2023-06-19T03:48:47;13.00;;;11.20;;
36817;SDS011;22761;51.542;16.450;2023-06-19T03:51:18;13.40;;;11.20;;
36817;SDS011;22761;51.542;16.450;2023-06-19T03:53:46;11.60;;;10.40;;
36817;SDS011;22761;51.542;16.450;2023-06-19T03:56:17;12.50;;;11.10;;
36817;SDS011;22761;51.542;16.450;2023-06-19T03:58:48;12.30;;;10.50;;
36817;SDS011;22761;51.542;16.450;2023-06-19T04:01:17;12.30;;;10.40;;
36817;SDS011;22761;51.542;16.450;2023-06-19T04:03:45;11.80;;;10.60;;
36817;SDS011;22761;51.542;16.450;2023-06-19T04:06:14;14.10;;;11.00;;
36817;SDS011;22761;51.542;16.450;2023-06-19T04:08:43;12.30;;;11.00;;
36817;SDS011;22761;51.542;16.450;2023-06-19T04:11:13;12.30;;;11.00;;
36817;SDS011;22761;51.542;16.450;2023-06-19T04:13:42;15.20;;;10.80;;
36817;SDS011;22761;51.542;16.450;2023-06-19T04:16:10;13.70;;;10.20;;
36817;SDS011;22761;51.542;16.450;2023-06-19T04:18:39;18.20;;;11.00;;
36817;SDS011;22761;51.542;16.450;2023-06-19T04:21:07;16.00;;;11.40;;
36817;SDS011;22761;51.542;16.450;2023-06-19T04:23:36;11.80;;;10.60;;
36817;SDS011;22761;51.542;16.450;2023-06-19T04:26:04;12.10;;;10.80;;
36817;SDS011;22761;51.542;16.450;2023-06-19T04:28:33;12.70;;;10.70;;
36817;SDS011;22761;51.542;16.450;2023-06-19T04:31:01;11.40;;;9.90;;
36817;SDS011;22761;51.542;16.450;2023-06-19T04:33:30;11.70;;;10.30;;
36817;SDS011;22761;51.542;16.450;2023-06-19T04:35:58;11.70;;;10.10;;
36817;SDS011;22761;51.542;16.450;2023-06-19T04:38:27;11.30;;;10.20;;
36817;SDS011;22761;51.542;16.450;2023-06-19T04:40:55;11.30;;;10.10;;
36817;SDS011;22761;51.542;16.450;2023-06-19T04:43:25;11.40;;;10.30;;
36817;SDS011;22761;51.542;16.450;2023-06-19T04:45:53;12.80;;;11.20;;
36817;SDS011;22761;51.542;16.450;2023-06-19T04:48:22;13.50;;;11.90;;
36817;SDS011;22761;51.542;16.450;2023-06-19T04:50:53;12.30;;;11.00;;
36817;SDS011;22761;51.542;16.450;2023-06-19T04:53:24;12.10;;;10.90;;
36817;SDS011;22761;51.542;16.450;2023-06-19T04:55:53;12.50;;;11.20;;
36817;SDS011;22761;51.542;16.450;2023-06-19T04:58:23;15.60;;;10.80;;
36817;SDS011;22761;51.542;16.450;2023-06-19T05:00:51;13.30;;;10.70;;
36817;SDS011;22761;51.542;16.450;2023-06-19T05:03:20;15.00;;;10.60;;
36817;SDS011;22761;51.542;16.450;2023-06-19T05:05:50;11.20;;;10.10;;
36817;SDS011;22761;51.542;16.450;2023-06-19T05:08:19;11.80;;;10.60;;
36817;SDS011;22761;51.542;16.450;2023-06-19T05:10:47;11.70;;;10.20;;
36817;SDS011;22761;51.542;16.450;2023-06-19T05:13:15;15.10;;;10.90;;
36817;SDS011;22761;51.542;16.450;2023-06-19T05:15:46;14.00;;;11.00;;
36817;SDS011;22761;51.542;16.450;2023-06-19T05:18:14;12.60;;;11.30;;
36817;SDS011;22761;51.542;16.450;2023-06-19T05:20:43;12.50;;;11.20;;
36817;SDS011;22761;51.542;16.450;2023-06-19T05:23:12;14.00;;;11.50;;
36817;SDS011;22761;51.542;16.450;2023-06-19T05:25:40;12.50;;;11.20;;
36817;SDS011;22761;51.542;16.450;2023-06-19T05:30:39;12.80;;;11.50;;
36817;SDS011;22761;51.542;16.450;2023-06-19T05:33:07;12.70;;;11.40;;
36817;SDS011;22761;51.542;16.450;2023-06-19T05:35:37;14.00;;;12.60;;
36817;SDS011;22761;51.542;16.450;2023-06-19T05:38:06;18.70;;;12.90;;
36817;SDS011;22761;51.542;16.450;2023-06-19T05:40:34;16.10;;;13.30;;
36817;SDS011;22761;51.542;16.450;2023-06-19T05:43:03;17.50;;;12.80;;
36817;SDS011;22761;51.542;16.450;2023-06-19T05:45:32;15.80;;;13.30;;
36817;SDS011;22761;51.542;16.450;2023-06-19T05:48:00;13.40;;;12.00;;
36817;SDS011;22761;51.542;16.450;2023-06-19T05:50:29;12.50;;;11.10;;
36817;SDS011;22761;51.542;16.450;2023-06-19T05:52:58;13.90;;;12.40;;
36817;SDS011;22761;51.542;16.450;2023-06-19T05:55:27;14.40;;;11.90;;
36817;SDS011;22761;51.542;16.450;2023-06-19T05:57:55;13.60;;;12.10;;
36817;SDS011;22761;51.542;16.450;2023-06-19T06:00:24;13.50;;;11.30;;
36817;SDS011;22761;51.542;16.450;2023-06-19T06:02:53;12.70;;;11.40;;
36817;SDS011;22761;51.542;16.450;2023-06-19T06:05:21;14.00;;;11.70;;
36817;SDS011;22761;51.542;16.450;2023-06-19T06:07:51;14.60;;;10.40;;
36817;SDS011;22761;51.542;16.450;2023-06-19T06:10:22;12.00;;;10.50;;
36817;SDS011;22761;51.542;16.450;2023-06-19T06:12:52;11.30;;;10.20;;
36817;SDS011;22761;51.542;16.450;2023-06-19T06:15:20;12.10;;;10.10;;
36817;SDS011;22761;51.542;16.450;2023-06-19T06:17:49;11.10;;;9.80;;
36817;SDS011;22761;51.542;16.450;2023-06-19T06:20:17;12.50;;;10.30;;
36817;SDS011;22761;51.542;16.450;2023-06-19T06:22:46;10.40;;;9.30;;
36817;SDS011;22761;51.542;16.450;2023-06-19T06:25:14;10.70;;;9.70;;
36817;SDS011;22761;51.542;16.450;2023-06-19T06:27:43;10.70;;;9.40;;
36817;SDS011;22761;51.542;16.450;2023-06-19T06:30:12;10.70;;;9.30;;
36817;SDS011;22761;51.542;16.450;2023-06-19T06:32:41;11.30;;;9.90;;
36817;SDS011;22761;51.542;16.450;2023-06-19T06:35:09;11.60;;;9.60;;
36817;SDS011;22761;51.542;16.450;2023-06-19T06:37:38;10.40;;;9.40;;
36817;SDS011;22761;51.542;16.450;2023-06-19T06:40:07;11.80;;;9.70;;
36817;SDS011;22761;51.542;16.450;2023-06-19T06:42:39;10.00;;;9.00;;
36817;SDS011;22761;51.542;16.450;2023-06-19T06:45:08;10.40;;;9.30;;
36817;SDS011;22761;51.542;16.450;2023-06-19T06:47:37;10.60;;;9.50;;
36817;SDS011;22761;51.542;16.450;2023-06-19T06:50:06;9.90;;;8.90;;
36817;SDS011;22761;51.542;16.450;2023-06-19T06:55:04;9.10;;;8.10;;
36817;SDS011;22761;51.542;16.450;2023-06-19T06:57:32;9.50;;;8.30;;
36817;SDS011;22761;51.542;16.450;2023-06-19T07:00:01;11.00;;;8.60;;
36817;SDS011;22761;51.542;16.450;2023-06-19T07:02:31;9.90;;;8.50;;
36817;SDS011;22761;51.542;16.450;2023-06-19T07:05:01;9.90;;;8.80;;
36817;SDS011;22761;51.542;16.450;2023-06-19T07:07:29;8.60;;;7.50;;
36817;SDS011;22761;51.542;16.450;2023-06-19T07:09:57;11.10;;;8.10;;
36817;SDS011;22761;51.542;16.450;2023-06-19T07:12:26;9.90;;;8.70;;
36817;SDS011;22761;51.542;16.450;2023-06-19T07:14:54;10.20;;;8.70;;
36817;SDS011;22761;51.542;16.450;2023-06-19T07:17:22;10.10;;;9.10;;
36817;SDS011;22761;51.542;16.450;2023-06-19T07:19:51;9.00;;;8.10;;
36817;SDS011;22761;51.542;16.450;2023-06-19T07:22:19;9.50;;;8.10;;
36817;SDS011;22761;51.542;16.450;2023-06-19T07:24:47;9.10;;;8.20;;
36817;SDS011;22761;51.542;16.450;2023-06-19T07:27:16;8.40;;;7.70;;
36817;SDS011;22761;51.542;16.450;2023-06-19T07:29:44;8.70;;;7.90;;
36817;SDS011;22761;51.542;16.450;2023-06-19T07:32:12;8.80;;;7.50;;
36817;SDS011;22761;51.542;16.450;2023-06-19T07:34:41;9.50;;;7.00;;
36817;SDS011;22761;51.542;16.450;2023-06-19T07:37:09;9.40;;;7.40;;
36817;SDS011;22761;51.542;16.450;2023-06-19T07:39:38;7.80;;;7.00;;
36817;SDS011;22761;51.542;16.450;2023-06-19T07:42:06;10.70;;;7.90;;
36817;SDS011;22761;51.542;16.450;2023-06-19T07:44:34;7.90;;;7.10;;
36817;SDS011;22761;51.542;16.450;2023-06-19T07:47:03;8.90;;;8.00;;
36817;SDS011;22761;51.542;16.450;2023-06-19T07:49:32;8.90;;;7.50;;
36817;SDS011;22761;51.542;16.450;2023-06-19T07:52:00;13.10;;;7.60;;
36817;SDS011;22761;51.542;16.450;2023-06-19T07:54:28;11.80;;;7.20;;
36817;SDS011;22761;51.542;16.450;2023-06-19T07:56:56;8.50;;;7.60;;
36817;SDS011;22761;51.542;16.450;2023-06-19T07:59:25;9.30;;;7.50;;
36817;SDS011;22761;51.542;16.450;2023-06-19T08:01:54;9.50;;;7.70;;
36817;SDS011;22761;51.542;16.450;2023-06-19T08:04:23;8.50;;;7.50;;
36817;SDS011;22761;51.542;16.450;2023-06-19T08:06:51;7.50;;;6.90;;
36817;SDS011;22761;51.542;16.450;2023-06-19T08:09:19;7.90;;;7.10;;
36817;SDS011;22761;51.542;16.450;2023-06-19T08:11:48;7.90;;;7.00;;
36817;SDS011;22761;51.542;16.450;2023-06-19T08:14:16;10.30;;;6.60;;
36817;SDS011;22761;51.542;16.450;2023-06-19T08:16:45;7.30;;;6.60;;
36817;SDS011;22761;51.542;16.450;2023-06-19T08:19:13;7.90;;;7.10;;
36817;SDS011;22761;51.542;16.450;2023-06-19T08:21:41;9.90;;;6.80;;
36817;SDS011;22761;51.542;16.450;2023-06-19T08:24:09;7.20;;;6.50;;
36817;SDS011;22761;51.542;16.450;2023-06-19T08:26:38;7.10;;;6.50;;
36817;SDS011;22761;51.542;16.450;2023-06-19T08:29:06;7.00;;;6.40;;
36817;SDS011;22761;51.542;16.450;2023-06-19T08:31:35;7.60;;;6.10;;
36817;SDS011;22761;51.542;16.450;2023-06-19T08:34:03;7.10;;;6.40;;
36817;SDS011;22761;51.542;16.450;2023-06-19T08:36:35;8.00;;;6.50;;
36817;SDS011;22761;51.542;16.450;2023-06-19T08:39:04;7.90;;;6.80;;
36817;SDS011;22761;51.542;16.450;2023-06-19T08:41:33;6.50;;;5.90;;
36817;SDS011;22761;51.542;16.450;2023-06-19T08:44:02;7.00;;;6.30;;
36817;SDS011;22761;51.542;16.450;2023-06-19T08:46:31;6.70;;;6.10;;
36817;SDS011;22761;51.542;16.450;2023-06-19T08:49:00;6.80;;;5.70;;
36817;SDS011;22761;51.542;16.450;2023-06-19T08:51:28;6.90;;;6.20;;
36817;SDS011;22761;51.542;16.450;2023-06-19T08:54:04;6.40;;;5.70;;
36817;SDS011;22761;51.542;16.450;2023-06-19T08:56:33;9.00;;;5.90;;
36817;SDS011;22761;51.542;16.450;2023-06-19T09:01:48;6.40;;;5.90;;
36817;SDS011;22761;51.542;16.450;2023-06-19T09:04:26;6.50;;;5.80;;
36817;SDS011;22761;51.542;16.450;2023-06-19T09:06:56;5.80;;;5.10;;
36817;SDS011;22761;51.542;16.450;2023-06-19T09:09:25;8.50;;;5.70;;
36817;SDS011;22761;51.542;16.450;2023-06-19T09:14:36;6.70;;;6.10;;
36817;SDS011;22761;51.542;16.450;2023-06-19T09:17:07;6.70;;;5.90;;
36817;SDS011;22761;51.542;16.450;2023-06-19T09:19:46;6.30;;;5.70;;
36817;SDS011;22761;51.542;16.450;2023-06-19T09:24:49;6.80;;;5.90;;
36817;SDS011;22761;51.542;16.450;2023-06-19T09:27:19;6.70;;;6.20;;
36817;SDS011;22761;51.542;16.450;2023-06-19T09:29:49;7.10;;;5.30;;
36817;SDS011;22761;51.542;16.450;2023-06-19T09:32:24;5.60;;;5.10;;
36817;SDS011;22761;51.542;16.450;2023-06-19T09:34:56;5.70;;;5.20;;
36817;SDS011;22761;51.542;16.450;2023-06-19T09:37:27;4.90;;;4.50;;
36817;SDS011;22761;51.542;16.450;2023-06-19T09:39:57;6.50;;;4.80;;
36817;SDS011;22761;51.542;16.450;2023-06-19T09:45:00;5.50;;;5.10;;
36817;SDS011;22761;51.542;16.450;2023-06-19T09:47:36;5.10;;;4.60;;
36817;SDS011;22761;51.542;16.450;2023-06-19T09:50:06;5.10;;;4.40;;
36817;SDS011;22761;51.542;16.450;2023-06-19T09:52:35;6.00;;;4.70;;
36817;SDS011;22761;51.542;16.450;2023-06-19T09:55:07;6.20;;;4.50;;
36817;SDS011;22761;51.542;16.450;2023-06-19T09:57:37;5.40;;;4.90;;
36817;SDS011;22761;51.542;16.450;2023-06-19T10:00:07;5.50;;;5.00;;
36817;SDS011;22761;51.542;16.450;2023-06-19T10:02:43;6.50;;;5.30;;
36817;SDS011;22761;51.542;16.450;2023-06-19T10:05:13;6.10;;;5.10;;
36817;SDS011;22761;51.542;16.450;2023-06-19T10:07:45;6.10;;;5.50;;
36817;SDS011;22761;51.542;16.450;2023-06-19T10:10:24;7.30;;;4.70;;
36817;SDS011;22761;51.542;16.450;2023-06-19T10:12:57;5.40;;;4.20;;
36817;SDS011;22761;51.542;16.450;2023-06-19T10:15:28;5.50;;;4.70;;
36817;SDS011;22761;51.542;16.450;2023-06-19T10:20:33;8.00;;;4.60;;
36817;SDS011;22761;51.542;16.450;2023-06-19T10:30:57;5.60;;;4.60;;
36817;SDS011;22761;51.542;16.450;2023-06-19T10:33:30;4.90;;;4.20;;
36817;SDS011;22761;51.542;16.450;2023-06-19T10:36:01;5.20;;;4.70;;
36817;SDS011;22761;51.542;16.450;2023-06-19T10:38:42;5.00;;;4.40;;
36817;SDS011;22761;51.542;16.450;2023-06-19T10:41:16;4.60;;;4.20;;
36817;SDS011;22761;51.542;16.450;2023-06-19T10:43:58;5.00;;;4.50;;
36817;SDS011;22761;51.542;16.450;2023-06-19T10:46:28;4.50;;;4.10;;
36817;SDS011;22761;51.542;16.450;2023-06-19T10:48:59;5.00;;;4.10;;
36817;SDS011;22761;51.542;16.450;2023-06-19T10:51:36;4.40;;;4.00;;
36817;SDS011;22761;51.542;16.450;2023-06-19T10:54:05;8.00;;;4.10;;
36817;SDS011;22761;51.542;16.450;2023-06-19T10:56:35;7.40;;;4.00;;
36817;SDS011;22761;51.542;16.450;2023-06-19T10:59:04;4.20;;;3.90;;
36817;SDS011;22761;51.542;16.450;2023-06-19T11:01:38;4.30;;;3.90;;
36817;SDS011;22761;51.542;16.450;2023-06-19T11:04:11;4.30;;;3.70;;
36817;SDS011;22761;51.542;16.450;2023-06-19T11:06:41;3.90;;;3.50;;
36817;SDS011;22761;51.542;16.450;2023-06-19T11:09:11;4.80;;;3.40;;
36817;SDS011;22761;51.542;16.450;2023-06-19T11:14:11;5.60;;;3.80;;
36817;SDS011;22761;51.542;16.450;2023-06-19T11:16:41;3.60;;;3.30;;
36817;SDS011;22761;51.542;16.450;2023-06-19T11:19:15;4.00;;;3.60;;
36817;SDS011;22761;51.542;16.450;2023-06-19T11:21:46;4.00;;;3.60;;
36817;SDS011;22761;51.542;16.450;2023-06-19T11:24:15;4.10;;;3.70;;
36817;SDS011;22761;51.542;16.450;2023-06-19T11:26:46;4.40;;;4.00;;
36817;SDS011;22761;51.542;16.450;2023-06-19T11:29:20;4.00;;;3.60;;
36817;SDS011;22761;51.542;16.450;2023-06-19T11:32:14;3.90;;;3.60;;
36817;SDS011;22761;51.542;16.450;2023-06-19T11:34:42;4.70;;;3.70;;
36817;SDS011;22761;51.542;16.450;2023-06-19T11:37:15;4.10;;;3.70;;
36817;SDS011;22761;51.542;16.450;2023-06-19T11:39:46;4.40;;;4.00;;
36817;SDS011;22761;51.542;16.450;2023-06-19T11:42:16;4.10;;;3.60;;
36817;SDS011;22761;51.542;16.450;2023-06-19T11:44:54;4.00;;;3.70;;
36817;SDS011;22761;51.542;16.450;2023-06-19T11:47:24;4.30;;;3.70;;
36817;SDS011;22761;51.542;16.450;2023-06-19T11:49:52;6.00;;;3.90;;
36817;SDS011;22761;51.542;16.450;2023-06-19T11:52:22;6.60;;;3.70;;
36817;SDS011;22761;51.542;16.450;2023-06-19T11:54:50;4.20;;;3.90;;
36817;SDS011;22761;51.542;16.450;2023-06-19T11:57:18;4.10;;;3.70;;
36817;SDS011;22761;51.542;16.450;2023-06-19T11:59:47;4.30;;;3.90;;
36817;SDS011;22761;51.542;16.450;2023-06-19T12:02:15;4.60;;;4.20;;
36817;SDS011;22761;51.542;16.450;2023-06-19T12:04:44;4.00;;;3.70;;
36817;SDS011;22761;51.542;16.450;2023-06-19T12:07:12;4.80;;;4.20;;
36817;SDS011;22761;51.542;16.450;2023-06-19T12:09:41;4.00;;;3.70;;
36817;SDS011;22761;51.542;16.450;2023-06-19T12:12:11;4.50;;;4.10;;
36817;SDS011;22761;51.542;16.450;2023-06-19T12:14:39;5.10;;;4.10;;
36817;SDS011;22761;51.542;16.450;2023-06-19T12:17:07;4.60;;;4.00;;
36817;SDS011;22761;51.542;16.450;2023-06-19T12:19:36;4.50;;;4.00;;
36817;SDS011;22761;51.542;16.450;2023-06-19T12:22:05;5.30;;;4.20;;
36817;SDS011;22761;51.542;16.450;2023-06-19T12:24:33;3.90;;;3.60;;
36817;SDS011;22761;51.542;16.450;2023-06-19T12:27:02;5.20;;;4.20;;
36817;SDS011;22761;51.542;16.450;2023-06-19T12:29:30;5.20;;;4.30;;
36817;SDS011;22761;51.542;16.450;2023-06-19T12:31:59;5.90;;;4.00;;
36817;SDS011;22761;51.542;16.450;2023-06-19T12:34:29;4.50;;;4.10;;
36817;SDS011;22761;51.542;16.450;2023-06-19T12:39:27;4.40;;;4.00;;
36817;SDS011;22761;51.542;16.450;2023-06-19T12:41:55;4.10;;;3.70;;
36817;SDS011;22761;51.542;16.450;2023-06-19T12:44:24;4.20;;;3.80;;
36817;SDS011;22761;51.542;16.450;2023-06-19T12:46:52;4.30;;;3.90;;
36817;SDS011;22761;51.542;16.450;2023-06-19T12:51:50;4.30;;;3.90;;
36817;SDS011;22761;51.542;16.450;2023-06-19T12:54:20;4.40;;;3.90;;
36817;SDS011;22761;51.542;16.450;2023-06-19T12:56:48;4.30;;;3.90;;
36817;SDS011;22761;51.542;16.450;2023-06-19T12:59:18;5.30;;;3.80;;
36817;SDS011;22761;51.542;16.450;2023-06-19T13:01:47;6.80;;;3.30;;
36817;SDS011;22761;51.542;16.450;2023-06-19T13:06:44;5.50;;;4.30;;
36817;SDS011;22761;51.542;16.450;2023-06-19T13:09:13;4.90;;;3.70;;
36817;SDS011;22761;51.542;16.450;2023-06-19T13:11:41;3.90;;;3.50;;
36817;SDS011;22761;51.542;16.450;2023-06-19T13:14:10;4.70;;;4.20;;
36817;SDS011;22761;51.542;16.450;2023-06-19T13:16:38;4.40;;;3.80;;
36817;SDS011;22761;51.542;16.450;2023-06-19T13:19:09;4.30;;;3.90;;
36817;SDS011;22761;51.542;16.450;2023-06-19T13:21:37;4.20;;;3.80;;
36817;SDS011;22761;51.542;16.450;2023-06-19T13:24:06;5.20;;;4.30;;
36817;SDS011;22761;51.542;16.450;2023-06-19T13:26:34;7.40;;;4.40;;
36817;SDS011;22761;51.542;16.450;2023-06-19T13:29:03;5.20;;;4.00;;
36817;SDS011;22761;51.542;16.450;2023-06-19T13:31:31;5.80;;;3.90;;
36817;SDS011;22761;51.542;16.450;2023-06-19T13:33:59;4.40;;;4.00;;
36817;SDS011;22761;51.542;16.450;2023-06-19T13:36:28;4.90;;;4.10;;
36817;SDS011;22761;51.542;16.450;2023-06-19T13:38:57;4.40;;;4.00;;
36817;SDS011;22761;51.542;16.450;2023-06-19T13:41:25;7.30;;;4.40;;
36817;SDS011;22761;51.542;16.450;2023-06-19T13:43:54;5.00;;;4.20;;
36817;SDS011;22761;51.542;16.450;2023-06-19T13:46:23;4.80;;;4.30;;
36817;SDS011;22761;51.542;16.450;2023-06-19T13:48:51;5.10;;;4.70;;
36817;SDS011;22761;51.542;16.450;2023-06-19T13:51:20;5.20;;;4.20;;
36817;SDS011;22761;51.542;16.450;2023-06-19T13:53:50;4.70;;;4.30;;
36817;SDS011;22761;51.542;16.450;2023-06-19T13:56:19;4.70;;;4.30;;
36817;SDS011;22761;51.542;16.450;2023-06-19T13:58:47;4.60;;;4.20;;
36817;SDS011;22761;51.542;16.450;2023-06-19T14:01:15;4.20;;;3.90;;
36817;SDS011;22761;51.542;16.450;2023-06-19T14:08:41;5.80;;;3.70;;
36817;SDS011;22761;51.542;16.450;2023-06-19T14:11:09;4.30;;;3.90;;
36817;SDS011;22761;51.542;16.450;2023-06-19T14:13:37;4.30;;;4.00;;
36817;SDS011;22761;51.542;16.450;2023-06-19T14:16:06;6.00;;;4.50;;
36817;SDS011;22761;51.542;16.450;2023-06-19T14:18:35;6.20;;;4.00;;
36817;SDS011;22761;51.542;16.450;2023-06-19T14:21:05;4.40;;;4.00;;
36817;SDS011;22761;51.542;16.450;2023-06-19T14:23:33;4.50;;;4.10;;
36817;SDS011;22761;51.542;16.450;2023-06-19T14:26:06;4.70;;;4.30;;
36817;SDS011;22761;51.542;16.450;2023-06-19T14:28:36;5.80;;;4.30;;
36817;SDS011;22761;51.542;16.450;2023-06-19T14:31:06;5.60;;;4.20;;
36817;SDS011;22761;51.542;16.450;2023-06-19T14:33:34;4.50;;;4.10;;
36817;SDS011;22761;51.542;16.450;2023-06-19T14:36:05;4.70;;;4.30;;
36817;SDS011;22761;51.542;16.450;2023-06-19T14:38:33;5.00;;;4.30;;
36817;SDS011;22761;51.542;16.450;2023-06-19T14:41:02;4.30;;;4.00;;
36817;SDS011;22761;51.542;16.450;2023-06-19T14:43:31;4.70;;;4.10;;
36817;SDS011;22761;51.542;16.450;2023-06-19T14:46:01;5.40;;;4.80;;
36817;SDS011;22761;51.542;16.450;2023-06-19T14:48:32;6.30;;;4.50;;
36817;SDS011;22761;51.542;16.450;2023-06-19T14:51:01;5.60;;;4.70;;
36817;SDS011;22761;51.542;16.450;2023-06-19T14:53:30;4.60;;;4.20;;
36817;SDS011;22761;51.542;16.450;2023-06-19T14:55:59;5.20;;;4.70;;
36817;SDS011;22761;51.542;16.450;2023-06-19T14:58:28;4.80;;;4.40;;
36817;SDS011;22761;51.542;16.450;2023-06-19T15:00:56;5.50;;;4.40;;
36817;SDS011;22761;51.542;16.450;2023-06-19T15:03:26;5.00;;;4.50;;
36817;SDS011;22761;51.542;16.450;2023-06-19T15:05:54;6.00;;;5.00;;
36817;SDS011;22761;51.542;16.450;2023-06-19T15:08:23;5.30;;;4.80;;
36817;SDS011;22761;51.542;16.450;2023-06-19T15:10:52;5.90;;;4.80;;
36817;SDS011;22761;51.542;16.450;2023-06-19T15:13:20;5.60;;;4.40;;
36817;SDS011;22761;51.542;16.450;2023-06-19T15:15:49;5.40;;;4.90;;
36817;SDS011;22761;51.542;16.450;2023-06-19T15:18:19;6.10;;;5.20;;
36817;SDS011;22761;51.542;16.450;2023-06-19T15:20:47;5.40;;;4.90;;
36817;SDS011;22761;51.542;16.450;2023-06-19T15:23:16;5.60;;;5.00;;
36817;SDS011;22761;51.542;16.450;2023-06-19T15:28:13;5.70;;;5.20;;
36817;SDS011;22761;51.542;16.450;2023-06-19T15:30:41;5.90;;;5.30;;
36817;SDS011;22761;51.542;16.450;2023-06-19T15:33:10;5.90;;;5.00;;